Time;durP1;ratioP1;P1;durP2;ratioP2;P2;SDS_P1;SDS_P2;PMS_P1;PMS_P2;Temp;Humidity;BMP_temperature;BMP_pressure;BME280_temperature;BME280_humidity;BME280_pressure;Samples;Min_cycle;Max_cycle;Signal;HPM_P1;HPM_P2
2022/08/01 00:00:35;;;;;;;5.10;3.97;;;15.30;99.90;;;;;;5034055;28;20065;-75
2022/08/01 00:03:03;;;;;;;5.20;3.97;;;15.30;99.90;;;;;;5019374;28;20038;-75
2022/08/01 00:05:31;;;;;;;7.03;4.38;;;15.30;99.90;;;;;;5040191;28;20022;-75
2022/08/01 00:07:58;;;;;;;5.15;4.07;;;15.20;99.90;;;;;;5040261;28;20038;-75
2022/08/01 00:10:26;;;;;;;5.75;3.90;;;15.20;99.90;;;;;;5024150;28;20025;-76
2022/08/01 00:12:53;;;;;;;5.25;3.83;;;15.20;99.90;;;;;;5029877;28;20041;-76
2022/08/01 00:15:20;;;;;;;6.13;4.03;;;15.20;99.90;;;;;;4999101;28;20096;-75
2022/08/01 00:17:47;;;;;;;6.38;4.22;;;15.20;99.90;;;;;;5016433;28;20519;-75
2022/08/01 00:20:16;;;;;;;5.00;3.70;;;15.10;99.90;;;;;;4998885;28;20398;-77
2022/08/01 00:22:43;;;;;;;7.05;4.28;;;15.10;99.90;;;;;;5015929;28;20400;-76
2022/08/01 00:25:11;;;;;;;5.30;3.88;;;15.10;99.90;;;;;;5016773;28;20065;-75
2022/08/01 00:27:38;;;;;;;7.88;4.00;;;15.00;99.90;;;;;;5016380;28;20465;-76
2022/08/01 00:30:07;;;;;;;5.63;3.95;;;15.00;99.90;;;;;;5016186;28;20054;-76
2022/08/01 00:32:34;;;;;;;6.97;3.63;;;15.00;99.90;;;;;;5016003;28;20042;-77
2022/08/01 00:35:01;;;;;;;9.13;3.63;;;14.90;99.90;;;;;;5015622;28;20446;-76
2022/08/01 00:37:30;;;;;;;5.47;4.25;;;14.90;99.90;;;;;;4998686;28;20050;-76
2022/08/01 00:39:57;;;;;;;6.28;3.80;;;14.80;99.90;;;;;;5016681;28;20054;-77
2022/08/01 00:42:24;;;;;;;4.90;4.18;;;14.80;99.90;;;;;;5030313;28;20041;-76
2022/08/01 00:44:52;;;;;;;4.88;4.00;;;14.80;99.90;;;;;;5004870;28;20132;-76
2022/08/01 00:47:20;;;;;;;6.15;4.05;;;14.70;99.90;;;;;;5016402;28;20046;-75
2022/08/01 00:49:47;;;;;;;6.95;4.30;;;14.70;99.90;;;;;;5015928;28;20531;-77
2022/08/01 00:52:14;;;;;;;6.75;4.35;;;14.60;99.90;;;;;;5016377;28;20066;-76
2022/08/01 00:54:45;;;;;;;6.00;3.95;;;14.70;99.90;;;;;;5012782;28;20481;-76
2022/08/01 00:57:12;;;;;;;5.07;4.30;;;14.60;99.90;;;;;;4983787;28;20457;-76
2022/08/01 00:59:41;;;;;;;5.88;4.03;;;14.60;99.90;;;;;;4998508;28;20052;-76
2022/08/01 01:02:08;;;;;;;5.85;4.05;;;14.50;99.90;;;;;;5015736;28;20042;-77
2022/08/01 01:04:36;;;;;;;6.07;3.50;;;14.40;99.90;;;;;;5016460;28;20065;-76
2022/08/01 01:07:10;;;;;;;4.75;3.97;;;14.40;99.90;;;;;;5016090;28;20548;-77
2022/08/01 01:09:45;;;;;;;6.72;4.40;;;14.40;99.90;;;;;;5016129;28;20050;-76
2022/08/01 01:12:23;;;;;;;5.53;3.93;;;14.40;99.90;;;;;;5016018;28;20096;-78
2022/08/01 01:14:56;;;;;;;17.02;10.45;;;14.50;99.90;;;;;;5016032;28;20122;-76
2022/08/01 01:17:29;;;;;;;28.80;19.25;;;14.50;99.90;;;;;;4998483;28;20053;-76
2022/08/01 01:20:00;;;;;;;9.77;4.03;;;14.50;99.90;;;;;;4997648;28;20050;-76
2022/08/01 01:22:43;;;;;;;10.88;6.57;;;14.60;99.90;;;;;;5015520;28;20046;-76
2022/08/01 01:25:34;;;;;;;8.05;4.95;;;14.50;99.90;;;;;;5015547;28;20050;-77
2022/08/01 01:28:13;;;;;;;5.85;4.10;;;14.50;99.90;;;;;;4989191;28;20050;-75
2022/08/01 01:30:45;;;;;;;5.75;4.00;;;14.40;99.90;;;;;;5015480;28;20037;-76
2022/08/01 01:33:15;;;;;;;8.20;4.35;;;14.40;99.90;;;;;;5015336;28;20030;-76
2022/08/01 01:35:47;;;;;;;4.60;3.80;;;14.40;99.90;;;;;;5015816;28;20099;-76
2022/08/01 01:38:19;;;;;;;6.47;3.95;;;14.30;99.90;;;;;;5015576;28;20038;-76
2022/08/01 01:40:47;;;;;;;6.55;4.47;;;14.30;99.90;;;;;;5015655;28;20057;-76
2022/08/01 01:43:16;;;;;;;6.78;4.05;;;14.30;99.90;;;;;;5000629;28;20042;-77
2022/08/01 01:45:46;;;;;;;5.68;4.13;;;14.30;99.90;;;;;;4997388;28;20062;-76
2022/08/01 01:48:16;;;;;;;8.05;4.60;;;14.20;99.90;;;;;;5015344;28;20042;-76
2022/08/01 01:50:47;;;;;;;4.53;3.80;;;14.20;99.90;;;;;;4997237;28;20497;-77
2022/08/01 01:53:18;;;;;;;6.68;4.88;;;14.20;99.90;;;;;;4997467;28;20061;-77
2022/08/01 01:55:48;;;;;;;5.32;3.95;;;14.20;99.90;;;;;;5003408;28;20069;-76
2022/08/01 01:58:17;;;;;;;4.35;3.90;;;14.20;99.90;;;;;;4995815;28;20465;-77
2022/08/01 02:00:47;;;;;;;6.00;4.10;;;14.20;99.90;;;;;;4995224;28;20042;-76
2022/08/01 02:03:15;;;;;;;4.97;3.90;;;14.10;99.90;;;;;;4977745;28;20043;-76
2022/08/01 02:05:43;;;;;;;6.43;4.63;;;14.10;99.90;;;;;;5013275;28;20489;-76
2022/08/01 02:08:12;;;;;;;6.95;4.43;;;14.10;99.90;;;;;;4997116;28;20049;-76
2022/08/01 02:10:41;;;;;;;7.78;4.10;;;14.10;99.90;;;;;;5004443;28;20034;-75
2022/08/01 02:13:31;;;;;;;6.00;4.32;;;14.00;99.90;;;;;;5036601;28;20106;-76
2022/08/01 02:16:00;;;;;;;5.72;4.75;;;14.00;99.90;;;;;;5003753;28;20050;-76
2022/08/01 02:18:29;;;;;;;8.40;6.32;;;14.00;99.90;;;;;;4997008;28;20460;-76
2022/08/01 02:20:58;;;;;;;7.82;6.15;;;13.90;99.90;;;;;;4997449;28;20050;-76
2022/08/01 02:23:29;;;;;;;11.02;7.07;;;14.00;99.90;;;;;;5014422;28;20040;-76
2022/08/01 02:25:58;;;;;;;8.48;5.38;;;14.00;99.90;;;;;;5014793;28;20096;-76
2022/08/01 02:28:32;;;;;;;6.43;4.50;;;14.00;99.90;;;;;;5014964;28;20485;-75
2022/08/01 02:31:04;;;;;;;6.28;4.82;;;14.00;99.90;;;;;;4997698;28;20050;-77
2022/08/01 02:33:37;;;;;;;7.82;4.30;;;14.00;99.90;;;;;;5019869;28;20046;-75
2022/08/01 02:36:06;;;;;;;6.45;4.40;;;14.00;99.90;;;;;;5001654;28;20050;-76
2022/08/01 02:38:36;;;;;;;6.82;4.68;;;13.90;99.90;;;;;;5018530;28;20038;-77
2022/08/01 02:41:09;;;;;;;8.00;5.07;;;13.90;99.90;;;;;;5019084;28;20069;-76
2022/08/01 02:43:39;;;;;;;7.22;4.38;;;13.80;99.90;;;;;;5018736;28;20060;-76
2022/08/01 02:46:12;;;;;;;5.70;4.30;;;13.80;99.90;;;;;;5000645;28;20050;-76
2022/08/01 02:48:42;;;;;;;8.65;4.78;;;13.80;99.90;;;;;;5018860;28;20046;-76
2022/08/01 02:51:11;;;;;;;6.30;4.50;;;13.80;99.90;;;;;;5018351;28;20042;-76
2022/08/01 02:53:40;;;;;;;6.78;4.43;;;13.70;99.90;;;;;;5015000;28;20117;-76
2022/08/01 02:56:11;;;;;;;7.72;4.63;;;13.70;99.90;;;;;;5019736;28;20039;-76
2022/08/01 02:58:40;;;;;;;6.63;4.72;;;13.70;99.90;;;;;;5001984;28;20057;-76
2022/08/01 03:01:09;;;;;;;8.35;4.85;;;13.70;99.90;;;;;;5013252;28;20105;-76
2022/08/01 03:03:37;;;;;;;5.20;4.20;;;13.70;99.90;;;;;;5031201;28;20046;-76
2022/08/01 03:06:05;;;;;;;5.88;4.88;;;13.60;99.90;;;;;;5007369;28;20057;-75
2022/08/01 03:08:34;;;;;;;6.28;4.63;;;13.60;99.90;;;;;;5032096;28;20053;-76
2022/08/01 03:11:03;;;;;;;6.05;4.60;;;13.60;99.90;;;;;;5018449;28;20037;-75
2022/08/01 03:13:32;;;;;;;7.13;4.70;;;13.50;99.90;;;;;;5019968;28;20064;-76
2022/08/01 03:16:00;;;;;;;7.50;4.80;;;13.50;99.90;;;;;;5037273;28;20057;-76
2022/08/01 03:18:31;;;;;;;6.68;5.50;;;13.50;99.90;;;;;;5024598;28;20030;-76
2022/08/01 03:21:01;;;;;;;5.65;4.15;;;13.60;99.90;;;;;;5019684;28;20070;-76
2022/08/01 03:23:30;;;;;;;5.88;4.88;;;13.50;99.90;;;;;;5027961;28;20048;-76
2022/08/01 03:26:00;;;;;;;8.18;5.13;;;13.50;99.90;;;;;;5017839;28;20065;-77
2022/08/01 03:28:28;;;;;;;8.23;4.75;;;13.50;99.90;;;;;;5018030;28;20053;-77
2022/08/01 03:30:55;;;;;;;10.63;4.78;;;13.50;99.90;;;;;;5017799;28;20069;-76
2022/08/01 03:33:23;;;;;;;9.25;4.97;;;13.50;99.90;;;;;;5000048;28;20042;-75
2022/08/01 03:35:57;;;;;;;7.82;4.65;;;13.50;99.90;;;;;;5017718;28;20069;-77
2022/08/01 03:38:28;;;;;;;7.45;4.90;;;13.50;99.90;;;;;;5017385;28;20038;-76
2022/08/01 03:40:59;;;;;;;6.50;5.25;;;13.50;99.90;;;;;;5014891;22;20045;-83
2022/08/01 03:43:32;;;;;;;8.35;5.03;;;13.50;99.90;;;;;;5022334;28;20054;-84
2022/08/01 03:46:07;;;;;;;9.50;5.57;;;13.50;99.90;;;;;;5004562;28;20129;-83
2022/08/01 03:48:40;;;;;;;6.00;4.88;;;13.50;99.90;;;;;;5001390;28;20049;-82
2022/08/01 03:51:10;;;;;;;7.93;5.03;;;13.60;99.90;;;;;;5018892;28;20038;-82
2022/08/01 03:53:42;;;;;;;9.93;5.50;;;13.60;99.90;;;;;;5019339;28;20061;-82
2022/08/01 03:56:10;;;;;;;9.70;5.95;;;13.60;99.90;;;;;;5019343;28;20439;-83
2022/08/01 03:58:40;;;;;;;7.68;5.60;;;13.70;99.90;;;;;;5018968;28;20092;-83
2022/08/01 04:01:09;;;;;;;8.23;5.22;;;13.70;99.90;;;;;;5019578;28;20049;-81
2022/08/01 04:03:36;;;;;;;7.28;5.20;;;14.00;99.90;;;;;;5018553;28;20054;-80
2022/08/01 04:06:05;;;;;;;10.20;5.38;;;14.50;99.90;;;;;;5001515;28;20046;-81
2022/08/01 04:08:38;;;;;;;8.27;5.15;;;14.80;99.90;;;;;;5019983;28;20069;-83
2022/08/01 04:11:05;;;;;;;9.60;5.43;;;15.40;99.90;;;;;;5001633;28;20052;-81
2022/08/01 04:13:33;;;;;;;8.98;4.97;;;16.00;99.90;;;;;;5018690;28;20057;-80
2022/08/01 04:16:01;;;;;;;8.93;5.30;;;16.60;99.90;;;;;;5001394;28;20081;-81
2022/08/01 04:18:28;;;;;;;7.82;4.93;;;17.00;99.90;;;;;;5018802;28;20041;-81
2022/08/01 04:20:55;;;;;;;9.23;4.75;;;17.20;99.90;;;;;;5020558;28;20046;-82
2022/08/01 04:23:25;;;;;;;15.32;5.03;;;17.80;99.90;;;;;;5027533;28;20049;-83
2022/08/01 04:25:56;;;;;;;7.05;4.80;;;18.50;99.90;;;;;;5028059;28;20038;-83
2022/08/01 04:28:25;;;;;;;6.57;4.50;;;19.20;99.90;;;;;;5028092;28;20054;-83
2022/08/01 04:30:56;;;;;;;11.38;4.40;;;19.50;99.90;;;;;;5005120;28;20471;-82
2022/08/01 04:33:25;;;;;;;15.10;4.78;;;19.60;99.90;;;;;;5021284;28;20046;-83
2022/08/01 04:35:53;;;;;;;8.05;4.25;;;19.40;99.90;;;;;;5019116;28;20061;-81
2022/08/01 04:38:27;;;;;;;9.35;5.30;;;19.60;99.90;;;;;;5017846;28;20080;-82
2022/08/01 04:40:57;;;;;;;8.60;5.00;;;19.80;99.90;;;;;;5017792;28;20058;-81
2022/08/01 04:43:24;;;;;;;9.85;4.38;;;20.10;99.90;;;;;;5018708;28;20046;-84
2022/08/01 04:45:53;;;;;;;10.25;4.82;;;20.70;99.90;;;;;;5017886;28;20046;-81
2022/08/01 04:48:22;;;;;;;5.13;3.63;;;21.00;99.90;;;;;;5019925;28;20053;-84
2022/08/01 04:50:50;;;;;;;6.88;4.22;;;20.70;99.90;;;;;;5039194;28;20021;-82
2022/08/01 04:53:19;;;;;;;7.03;4.05;;;20.90;99.90;;;;;;5017600;28;20092;-80
2022/08/01 04:55:47;;;;;;;10.80;4.57;;;20.40;99.90;;;;;;5017029;28;20049;-81
2022/08/01 04:58:16;;;;;;;8.45;4.93;;;19.80;99.90;;;;;;5017557;28;20041;-80
2022/08/01 05:00:43;;;;;;;7.72;4.35;;;19.40;99.90;;;;;;5017329;28;20050;-80
2022/08/01 05:03:11;;;;;;;5.93;4.57;;;19.10;99.90;;;;;;5000287;28;20050;-81
2022/08/01 05:05:38;;;;;;;17.00;4.60;;;19.00;99.90;;;;;;5017969;28;20072;-82
2022/08/01 05:08:06;;;;;;;6.13;4.53;;;18.80;99.90;;;;;;5017670;28;20046;-81
2022/08/01 05:10:34;;;;;;;8.52;4.25;;;18.80;99.90;;;;;;5003157;28;20165;-81
2022/08/01 05:13:01;;;;;;;5.85;4.63;;;18.40;99.90;;;;;;5019280;28;20046;-82
2022/08/01 05:15:30;;;;;;;7.32;4.70;;;18.50;99.90;;;;;;5022189;28;20041;-81
2022/08/01 05:17:58;;;;;;;6.18;4.25;;;18.80;99.90;;;;;;5021290;28;20049;-83
2022/08/01 05:20:25;;;;;;;9.77;4.85;;;19.00;99.90;;;;;;5002497;28;20045;-80
2022/08/01 05:22:53;;;;;;;9.50;4.50;;;19.60;99.90;;;;;;4999610;28;20493;-81
2022/08/01 05:25:20;;;;;;;8.23;4.80;;;20.80;99.90;;;;;;5017643;28;20050;-82
2022/08/01 05:27:48;;;;;;;10.75;5.50;;;21.60;99.90;;;;;;5017560;28;20050;-80
2022/08/01 05:30:15;;;;;;;17.27;5.90;;;22.20;99.90;;;;;;5032226;28;20049;-81
2022/08/01 05:32:44;;;;;;;10.77;6.63;;;22.90;99.90;;;;;;5016894;28;20042;-82
2022/08/01 05:35:11;;;;;;;12.98;7.28;;;23.40;99.90;;;;;;5017702;28;20037;-82
2022/08/01 05:37:39;;;;;;;14.60;9.13;;;23.90;99.90;;;;;;5017543;28;20046;-83
2022/08/01 05:40:07;;;;;;;17.25;10.05;;;24.00;99.90;;;;;;5000426;28;20062;-80
2022/08/01 05:42:34;;;;;;;18.75;11.75;;;24.10;99.90;;;;;;5017890;28;20046;-81
2022/08/01 05:45:02;;;;;;;18.05;10.35;;;23.90;99.90;;;;;;5002120;28;20073;-81
2022/08/01 05:47:29;;;;;;;13.48;9.55;;;23.70;99.90;;;;;;5001943;28;20492;-81
2022/08/01 05:49:58;;;;;;;12.13;8.00;;;23.30;99.90;;;;;;5017487;28;20034;-82
2022/08/01 05:52:25;;;;;;;17.80;9.50;;;23.20;99.90;;;;;;5016671;28;20057;-81
2022/08/01 05:54:53;;;;;;;19.75;10.90;;;23.20;99.90;;;;;;4996723;28;20042;-80
2022/08/01 05:57:20;;;;;;;16.48;8.85;;;22.60;99.90;;;;;;5029387;28;20061;-79
2022/08/01 05:59:47;;;;;;;13.75;7.85;;;22.20;99.90;;;;;;4999161;28;20121;-80
2022/08/01 06:02:15;;;;;;;16.70;9.00;;;22.20;99.90;;;;;;4999181;28;20077;-79
2022/08/01 06:04:42;;;;;;;15.57;8.55;;;22.00;99.90;;;;;;5015651;28;20436;-79
2022/08/01 06:07:11;;;;;;;12.32;7.78;;;22.10;99.90;;;;;;5017995;28;20120;-80
2022/08/01 06:09:38;;;;;;;11.50;7.80;;;22.40;99.90;;;;;;4998947;28;20056;-81
2022/08/01 06:12:07;;;;;;;17.02;8.63;;;22.70;99.90;;;;;;5016872;28;20042;-80
2022/08/01 06:14:35;;;;;;;7.40;5.43;;;23.10;99.90;;;;;;5018046;28;20042;-79
2022/08/01 06:17:02;;;;;;;9.95;6.55;;;23.50;99.90;;;;;;4999985;28;20053;-80
2022/08/01 06:19:29;;;;;;;12.95;7.25;;;23.50;99.90;;;;;;5000943;28;20053;-81
2022/08/01 06:21:56;;;;;;;11.85;7.00;;;23.60;99.90;;;;;;5017583;28;20132;-80
2022/08/01 06:24:26;;;;;;;11.52;7.30;;;23.40;99.90;;;;;;5016147;28;20529;-79
2022/08/01 06:26:53;;;;;;;9.77;6.35;;;23.10;99.90;;;;;;5020967;28;20065;-80
2022/08/01 06:29:21;;;;;;;11.95;5.80;;;23.10;99.90;;;;;;5036162;28;20041;-80
2022/08/01 06:31:48;;;;;;;12.00;5.68;;;22.90;99.90;;;;;;5019942;28;20046;-79
2022/08/01 06:34:16;;;;;;;12.15;6.30;;;23.10;99.90;;;;;;5016760;28;20038;-80
2022/08/01 06:36:43;;;;;;;12.65;6.10;;;23.40;99.90;;;;;;5017435;28;20050;-80
2022/08/01 06:39:10;;;;;;;9.18;5.40;;;23.50;99.90;;;;;;4999396;28;20493;-79
2022/08/01 06:41:41;;;;;;;7.45;5.40;;;23.20;99.90;;;;;;5025504;28;20045;-80
2022/08/01 06:44:09;;;;;;;11.02;6.20;;;23.40;99.90;;;;;;5049814;28;20038;-79
2022/08/01 06:46:36;;;;;;;9.57;5.43;;;23.50;99.90;;;;;;5029984;28;20045;-78
2022/08/01 06:49:04;;;;;;;11.27;5.28;;;23.60;99.90;;;;;;5025430;28;20077;-82
2022/08/01 06:51:32;;;;;;;8.85;5.68;;;23.60;99.90;;;;;;5016483;28;20386;-78
2022/08/01 06:53:59;;;;;;;10.27;4.43;;;23.70;99.90;;;;;;4998178;28;20461;-79
2022/08/01 06:56:27;;;;;;;9.40;4.32;;;23.80;99.90;;;;;;5013112;28;20124;-81
2022/08/01 06:59:00;;;;;;;11.38;6.30;;;24.10;99.90;;;;;;5017060;28;20049;-81
2022/08/01 07:01:28;;;;;;;14.38;6.05;;;24.50;99.90;;;;;;5017176;28;20061;-81
2022/08/01 07:03:55;;;;;;;7.50;5.75;;;24.90;99.90;;;;;;5032272;28;20065;-80
2022/08/01 07:06:24;;;;;;;14.68;5.10;;;25.10;99.90;;;;;;5021800;28;20050;-78
2022/08/01 07:08:52;;;;;;;9.45;6.28;;;25.00;99.90;;;;;;5031398;28;20400;-82
2022/08/01 07:11:23;;;;;;;14.52;9.20;;;25.10;99.90;;;;;;5017376;28;20045;-83
2022/08/01 07:13:50;;;;;;;13.20;5.50;;;25.40;99.90;;;;;;5018056;28;20080;-82
2022/08/01 07:16:19;;;;;;;12.13;7.03;;;25.70;99.90;;;;;;5018199;28;20049;-80
2022/08/01 07:18:47;;;;;;;10.38;6.70;;;25.40;99.90;;;;;;5032012;28;20046;-79
2022/08/01 07:21:14;;;;;;;12.68;7.10;;;25.50;99.90;;;;;;5020478;28;20145;-81
2022/08/01 07:23:41;;;;;;;11.68;7.20;;;25.90;99.90;;;;;;5020584;28;20073;-81
2022/08/01 07:26:09;;;;;;;10.35;5.80;;;26.10;99.90;;;;;;5021765;28;20412;-81
2022/08/01 07:28:36;;;;;;;9.43;4.82;;;26.30;99.90;;;;;;5021530;28;20046;-81
2022/08/01 07:31:03;;;;;;;10.75;5.55;;;26.50;99.90;;;;;;5021113;28;20050;-81
2022/08/01 07:33:32;;;;;;;7.80;5.15;;;26.60;99.90;;;;;;5022166;28;20046;-79
2022/08/01 07:35:59;;;;;;;11.63;6.28;;;26.40;99.60;;;;;;5021789;28;20046;-79
2022/08/01 07:38:27;;;;;;;11.30;6.85;;;26.30;99.70;;;;;;5021827;28;20129;-81
2022/08/01 07:40:54;;;;;;;10.40;6.68;;;26.40;99.50;;;;;;5023972;28;20037;-83
2022/08/01 07:43:22;;;;;;;12.32;9.90;;;26.60;99.70;;;;;;5040344;28;20053;-79
2022/08/01 07:45:49;;;;;;;9.45;5.57;;;26.60;98.90;;;;;;5040854;28;20061;-79
2022/08/01 07:48:16;;;;;;;10.25;5.93;;;26.90;98.30;;;;;;5040211;28;20061;-77
2022/08/01 07:50:45;;;;;;;8.00;6.05;;;27.10;98.20;;;;;;5023039;28;20048;-80
2022/08/01 07:53:13;;;;;;;9.40;7.50;;;27.20;97.90;;;;;;5026922;28;20114;-83
2022/08/01 07:55:40;;;;;;;12.85;7.95;;;27.30;97.50;;;;;;5025410;28;20038;-80
2022/08/01 07:58:08;;;;;;;14.25;11.70;;;27.40;97.00;;;;;;5023324;28;20050;-82
2022/08/01 08:00:35;;;;;;;13.30;8.05;;;27.50;96.50;;;;;;5006855;28;20116;-81
2022/08/01 08:03:02;;;;;;;10.15;6.78;;;27.70;96.10;;;;;;5023931;28;20045;-83
2022/08/01 08:05:29;;;;;;;11.85;6.60;;;27.80;95.80;;;;;;5021898;28;20053;-80
2022/08/01 08:07:58;;;;;;;9.27;5.43;;;27.60;96.10;;;;;;5021191;28;20052;-81
2022/08/01 08:10:26;;;;;;;10.38;4.40;;;27.60;95.80;;;;;;5020894;28;20129;-81
2022/08/01 08:12:53;;;;;;;12.40;6.00;;;27.40;95.80;;;;;;5002647;28;20046;-80
2022/08/01 08:15:20;;;;;;;11.85;7.03;;;27.60;95.80;;;;;;5021386;28;20072;-80
2022/08/01 08:17:48;;;;;;;6.45;5.30;;;27.90;95.40;;;;;;4993128;28;20493;-81
2022/08/01 08:20:15;;;;;;;12.30;5.85;;;28.00;95.20;;;;;;5002612;28;20035;-82
2022/08/01 08:22:43;;;;;;;10.63;5.43;;;28.20;95.10;;;;;;4983553;28;20198;-81
2022/08/01 08:25:12;;;;;;;9.48;6.47;;;28.30;94.60;;;;;;5000121;28;20057;-81
2022/08/01 08:27:39;;;;;;;15.68;9.02;;;28.20;94.50;;;;;;5000384;28;20065;-81
2022/08/01 08:30:08;;;;;;;12.60;8.10;;;28.10;94.60;;;;;;4982618;28;20046;-81
2022/08/01 08:32:35;;;;;;;11.00;5.75;;;28.10;94.60;;;;;;5001631;28;20486;-82
2022/08/01 08:35:04;;;;;;;9.77;5.45;;;28.20;94.50;;;;;;5002291;28;20043;-81
2022/08/01 08:37:31;;;;;;;13.98;6.32;;;28.30;94.00;;;;;;5012455;28;20038;-80
2022/08/01 08:39:59;;;;;;;8.88;5.30;;;28.40;92.90;;;;;;4993888;28;20054;-82
2022/08/01 08:42:27;;;;;;;10.35;5.50;;;28.50;92.30;;;;;;4984279;28;20046;-80
2022/08/01 08:44:55;;;;;;;13.60;7.18;;;28.60;92.40;;;;;;4985722;28;20073;-81
2022/08/01 08:47:25;;;;;;;10.32;6.13;;;28.80;92.30;;;;;;5003743;28;20046;-81
2022/08/01 08:49:55;;;;;;;10.27;5.50;;;28.60;92.20;;;;;;5003067;28;20550;-81
2022/08/01 08:52:23;;;;;;;9.02;6.32;;;28.70;91.80;;;;;;5004770;28;20066;-83
2022/08/01 08:54:52;;;;;;;12.25;6.32;;;28.80;91.50;;;;;;4991240;28;20038;-84
2022/08/01 08:57:21;;;;;;;13.20;7.13;;;28.80;91.10;;;;;;5024913;28;20050;-82
2022/08/01 08:59:52;;;;;;;11.45;6.60;;;29.10;91.00;;;;;;5024398;28;20100;-83
2022/08/01 09:02:20;;;;;;;14.18;8.52;;;28.90;90.80;;;;;;5023963;28;20057;-81
2022/08/01 09:04:49;;;;;;;9.80;4.97;;;29.00;90.30;;;;;;5004809;28;20114;-80
2022/08/01 09:07:16;;;;;;;14.68;11.20;;;29.10;89.60;;;;;;5020587;28;20046;-81
2022/08/01 09:09:44;;;;;;;7.82;5.45;;;29.30;89.80;;;;;;5021406;28;20046;-81
2022/08/01 09:12:11;;;;;;;8.88;6.22;;;29.30;88.10;;;;;;5021087;28;20485;-81
2022/08/01 09:14:46;;;;;;;7.40;4.88;;;29.30;87.30;;;;;;5004400;28;20442;-82
2022/08/01 09:17:16;;;;;;;13.38;6.80;;;29.10;87.80;;;;;;5022275;28;20033;-81
2022/08/01 09:19:45;;;;;;;12.93;7.78;;;29.20;88.70;;;;;;5003718;28;20054;-84
2022/08/01 09:22:17;;;;;;;12.43;6.88;;;29.40;88.60;;;;;;5004949;28;20060;-82
2022/08/01 09:24:58;;;;;;;14.70;8.13;;;29.60;88.10;;;;;;5022006;28;20106;-83
2022/08/01 09:27:26;;;;;;;8.57;4.75;;;29.70;87.20;;;;;;5004171;28;20129;-79
2022/08/01 09:29:55;;;;;;;6.72;4.55;;;29.50;87.30;;;;;;5032716;28;20053;-80
2022/08/01 09:32:24;;;;;;;10.45;5.85;;;29.50;88.20;;;;;;5039843;28;20041;-81
2022/08/01 09:34:51;;;;;;;7.25;5.75;;;29.70;87.80;;;;;;5039732;28;20042;-80
2022/08/01 09:37:31;;;;;;;9.43;5.85;;;29.90;86.30;;;;;;5039830;28;20124;-81
2022/08/01 09:39:58;;;;;;;11.57;6.72;;;30.00;85.90;;;;;;5060943;22;20045;-76
2022/08/01 09:42:27;;;;;;;11.15;6.70;;;30.20;85.20;;;;;;5038210;28;20052;-78
2022/08/01 09:44:54;;;;;;;11.00;6.28;;;30.20;85.20;;;;;;5038944;28;20166;-77
2022/08/01 09:47:37;;;;;;;12.30;8.65;;;30.20;85.20;;;;;;5038350;28;20077;-76
2022/08/01 09:50:05;;;;;;;9.77;6.15;;;30.20;84.80;;;;;;5046360;28;20041;-77
2022/08/01 09:52:32;;;;;;;12.15;8.35;;;30.00;83.80;;;;;;5056149;28;20098;-77
2022/08/01 09:55:02;;;;;;;10.10;6.63;;;29.80;84.50;;;;;;5057458;28;20106;-76
2022/08/01 09:57:30;;;;;;;7.47;4.75;;;30.00;84.70;;;;;;5058062;28;20047;-77
2022/08/01 09:59:59;;;;;;;9.13;5.22;;;30.00;83.00;;;;;;5040765;28;20144;-77
2022/08/01 10:02:35;;;;;;;10.10;6.68;;;30.20;83.10;;;;;;5055610;28;20526;-78
2022/08/01 10:05:04;;;;;;;11.82;7.72;;;30.60;82.60;;;;;;5058302;28;20040;-77
2022/08/01 10:07:31;;;;;;;9.55;4.70;;;30.70;81.60;;;;;;5057413;28;20511;-77
2022/08/01 10:10:11;;;;;;;5.93;4.30;;;31.00;79.50;;;;;;5058526;28;20395;-77
2022/08/01 10:12:40;;;;;;;6.75;5.15;;;30.80;78.50;;;;;;5057582;28;20045;-77
2022/08/01 10:15:08;;;;;;;7.10;3.95;;;30.50;78.30;;;;;;5058254;28;20396;-77
2022/08/01 10:17:40;;;;;;;8.95;4.65;;;30.30;76.90;;;;;;5057734;28;20049;-76
2022/08/01 10:20:10;;;;;;;8.57;5.32;;;30.50;76.10;;;;;;5056901;28;20049;-78
2022/08/01 10:22:38;;;;;;;9.48;4.32;;;31.00;76.20;;;;;;5038237;28;20044;-77
2022/08/01 10:25:07;;;;;;;6.03;3.20;;;31.20;74.20;;;;;;5057277;28;20033;-76
2022/08/01 10:27:37;;;;;;;6.03;3.33;;;31.30;73.80;;;;;;5039662;28;20053;-75
2022/08/01 10:30:07;;;;;;;5.55;3.90;;;31.30;72.70;;;;;;5039223;28;20080;-77
2022/08/01 10:32:37;;;;;;;6.30;3.83;;;31.20;72.10;;;;;;5039182;28;20049;-76
2022/08/01 10:35:06;;;;;;;6.00;3.22;;;30.90;72.30;;;;;;5057269;28;20097;-76
2022/08/01 10:37:35;;;;;;;5.88;2.90;;;30.30;72.70;;;;;;5057768;28;20047;-76
2022/08/01 10:40:04;;;;;;;5.03;2.70;;;30.20;71.90;;;;;;5056759;28;20511;-76
2022/08/01 10:42:32;;;;;;;7.07;3.53;;;30.30;72.10;;;;;;5038810;28;20575;-77
2022/08/01 10:45:03;;;;;;;3.88;2.70;;;30.40;72.00;;;;;;5057492;28;20040;-78
2022/08/01 10:47:39;;;;;;;5.10;2.50;;;30.50;69.20;;;;;;5058861;28;20047;-77
2022/08/01 10:50:17;;;;;;;5.20;2.63;;;30.10;67.60;;;;;;5059811;28;20048;-78
2022/08/01 10:53:07;;;;;;;5.20;2.72;;;30.00;68.50;;;;;;5041326;28;20048;-77
2022/08/01 10:55:47;;;;;;;5.63;2.50;;;30.20;67.90;;;;;;5045180;28;20056;-78
2022/08/01 10:58:14;;;;;;;6.28;2.88;;;30.00;67.80;;;;;;5046389;28;20045;-77
2022/08/01 11:00:42;;;;;;;12.00;6.32;;;29.70;68.40;;;;;;5061061;28;20111;-77
2022/08/01 11:03:10;;;;;;;11.63;6.50;;;30.10;69.40;;;;;;5062238;28;20033;-76
2022/08/01 11:05:38;;;;;;;6.05;3.17;;;30.60;69.60;;;;;;5044946;28;20044;-77
2022/08/01 11:08:11;;;;;;;4.45;2.40;;;31.00;68.10;;;;;;5063908;28;20094;-79
2022/08/01 11:10:40;;;;;;;6.07;2.50;;;31.20;65.10;;;;;;5047141;28;20045;-78
2022/08/01 11:13:08;;;;;;;5.93;3.25;;;31.00;65.40;;;;;;5052767;28;20041;-78
2022/08/01 11:15:36;;;;;;;6.38;3.70;;;31.10;65.20;;;;;;5067466;28;20197;-78
2022/08/01 11:18:24;;;;;;;14.57;3.10;;;31.40;64.80;;;;;;5044619;28;20133;-77
2022/08/01 11:20:59;;;;;;;9.88;2.78;;;31.40;64.80;;;;;;5043294;28;20045;-77
2022/08/01 11:23:29;;;;;;;4.18;3.05;;;31.60;63.90;;;;;;5044766;28;20055;-77
2022/08/01 11:26:15;;;;;;;4.78;3.25;;;31.90;63.50;;;;;;5062701;28;20075;-76
2022/08/01 11:28:46;;;;;;;4.82;2.70;;;31.50;63.20;;;;;;5046749;28;20044;-76
2022/08/01 11:31:30;;;;;;;5.70;2.85;;;31.20;64.20;;;;;;5046490;28;20355;-78
2022/08/01 11:33:58;;;;;;;8.65;6.68;;;30.80;65.00;;;;;;5045097;28;20053;-78
2022/08/01 11:36:27;;;;;;;7.15;3.60;;;31.10;65.20;;;;;;5048836;28;20132;-78
2022/08/01 11:39:17;;;;;;;10.73;6.03;;;31.30;65.30;;;;;;5050452;28;20053;-78
2022/08/01 11:41:48;;;;;;;8.60;4.60;;;31.60;64.60;;;;;;5049771;28;20056;-77
2022/08/01 11:44:22;;;;;;;9.55;4.80;;;31.60;64.80;;;;;;5046922;28;20056;-81
2022/08/01 11:47:02;;;;;;;5.70;2.67;;;31.80;64.60;;;;;;5062766;28;20037;-78
2022/08/01 11:49:44;;;;;;;4.93;2.67;;;32.00;63.40;;;;;;5046991;28;20033;-78
2022/08/01 11:52:14;;;;;;;7.20;6.18;;;31.90;63.00;;;;;;5027891;28;20492;-77
2022/08/01 11:54:44;;;;;;;5.30;3.42;;;32.00;63.60;;;;;;5043770;28;20072;-78
2022/08/01 11:57:13;;;;;;;9.65;4.05;;;32.10;65.00;;;;;;5034257;28;20443;-78
2022/08/01 11:59:45;;;;;;;4.45;2.85;;;32.30;63.90;;;;;;5061787;28;20044;-78
2022/08/01 12:02:21;;;;;;;6.85;2.72;;;32.70;63.00;;;;;;5046696;28;20041;-78
2022/08/01 12:04:54;;;;;;;6.70;3.30;;;32.20;63.20;;;;;;5044051;28;20053;-77
2022/08/01 12:07:24;;;;;;;3.45;2.50;;;32.20;63.40;;;;;;5063469;28;20037;-78
2022/08/01 12:10:00;;;;;;;5.15;3.95;;;31.60;64.00;;;;;;5061101;28;20053;-77
2022/08/01 12:12:28;;;;;;;4.10;2.80;;;31.40;65.20;;;;;;5043462;28;20396;-77
2022/08/01 12:14:57;;;;;;;6.72;3.28;;;31.40;65.20;;;;;;5059440;28;20429;-77
2022/08/01 12:17:35;;;;;;;4.13;2.80;;;31.70;65.30;;;;;;5060577;28;20053;-76
2022/08/01 12:20:04;;;;;;;5.25;3.47;;;32.00;64.70;;;;;;5053249;28;20124;-77
2022/08/01 12:22:33;;;;;;;6.55;3.22;;;31.90;64.10;;;;;;5085044;28;20040;-78
2022/08/01 12:25:07;;;;;;;4.28;2.58;;;32.20;63.60;;;;;;5085579;28;20053;-77
2022/08/01 12:27:34;;;;;;;7.50;3.65;;;32.40;63.30;;;;;;5056943;28;20080;-78
2022/08/01 12:30:02;;;;;;;7.03;3.00;;;32.40;63.90;;;;;;5073631;28;20033;-78
2022/08/01 12:32:31;;;;;;;5.20;3.40;;;32.40;64.20;;;;;;5065553;28;20048;-79
2022/08/01 12:35:03;;;;;;;4.28;3.25;;;32.40;63.90;;;;;;5045182;28;20057;-78
2022/08/01 12:37:31;;;;;;;3.95;2.63;;;32.20;63.60;;;;;;5062566;28;20052;-76
2022/08/01 12:40:00;;;;;;;5.15;3.25;;;32.10;63.40;;;;;;5058111;28;20496;-75
2022/08/01 12:42:28;;;;;;;5.43;2.80;;;31.90;64.10;;;;;;5040865;28;20049;-75
2022/08/01 12:44:56;;;;;;;3.22;2.42;;;31.80;64.10;;;;;;5056389;28;20121;-75
2022/08/01 12:47:25;;;;;;;63.53;51.70;;;31.10;64.50;;;;;;5041465;28;20099;-78
2022/08/01 12:49:52;;;;;;;44.47;35.97;;;30.70;66.00;;;;;;5060132;28;20060;-76
2022/08/01 12:52:22;;;;;;;73.32;62.17;;;30.70;66.40;;;;;;5066028;28;20040;-77
2022/08/01 12:55:09;;;;;;;44.10;39.10;;;30.80;66.50;;;;;;5078854;28;20044;-76